sensor_id;sensor_type;location;lat;lon;timestamp;P1;durP1;ratioP1;P2;durP2;ratioP2
10399;SDS011;10031;51.180;17.168;2023-02-11T00:01:40;52.97;;;26.33;;
10399;SDS011;10031;51.180;17.168;2023-02-11T00:04:06;48.90;;;25.27;;
10399;SDS011;10031;51.180;17.168;2023-02-11T00:06:33;52.00;;;25.27;;
10399;SDS011;10031;51.180;17.168;2023-02-11T00:09:02;52.03;;;25.37;;
10399;SDS011;10031;51.180;17.168;2023-02-11T00:11:38;55.07;;;25.57;;
10399;SDS011;10031;51.180;17.168;2023-02-11T00:14:04;53.37;;;25.20;;
10399;SDS011;10031;51.180;17.168;2023-02-11T00:16:38;51.30;;;24.93;;
10399;SDS011;10031;51.180;17.168;2023-02-11T00:19:07;53.53;;;25.53;;
10399;SDS011;10031;51.180;17.168;2023-02-11T00:21:33;60.03;;;27.10;;
10399;SDS011;10031;51.180;17.168;2023-02-11T00:23:59;52.23;;;26.10;;
10399;SDS011;10031;51.180;17.168;2023-02-11T00:26:33;47.60;;;24.07;;
10399;SDS011;10031;51.180;17.168;2023-02-11T00:28:59;50.80;;;24.70;;
10399;SDS011;10031;51.180;17.168;2023-02-11T00:31:25;53.00;;;23.93;;
10399;SDS011;10031;51.180;17.168;2023-02-11T00:33:51;49.03;;;25.00;;
10399;SDS011;10031;51.180;17.168;2023-02-11T00:36:18;54.97;;;25.67;;
10399;SDS011;10031;51.180;17.168;2023-02-11T00:38:47;50.60;;;24.13;;
10399;SDS011;10031;51.180;17.168;2023-02-11T00:41:14;50.00;;;24.40;;
10399;SDS011;10031;51.180;17.168;2023-02-11T00:43:40;51.33;;;25.27;;
10399;SDS011;10031;51.180;17.168;2023-02-11T00:46:07;46.53;;;24.80;;
10399;SDS011;10031;51.180;17.168;2023-02-11T00:48:33;48.97;;;24.93;;
10399;SDS011;10031;51.180;17.168;2023-02-11T00:50:59;49.97;;;26.40;;
10399;SDS011;10031;51.180;17.168;2023-02-11T00:53:25;54.97;;;25.43;;
10399;SDS011;10031;51.180;17.168;2023-02-11T00:55:51;50.77;;;25.40;;
10399;SDS011;10031;51.180;17.168;2023-02-11T00:58:17;51.10;;;26.40;;
10399;SDS011;10031;51.180;17.168;2023-02-11T01:00:43;48.03;;;25.27;;
10399;SDS011;10031;51.180;17.168;2023-02-11T01:03:09;52.37;;;25.57;;
10399;SDS011;10031;51.180;17.168;2023-02-11T01:05:35;57.73;;;25.93;;
10399;SDS011;10031;51.180;17.168;2023-02-11T01:08:01;51.50;;;25.23;;
10399;SDS011;10031;51.180;17.168;2023-02-11T01:10:28;54.37;;;25.93;;
10399;SDS011;10031;51.180;17.168;2023-02-11T01:12:54;54.07;;;26.50;;
10399;SDS011;10031;51.180;17.168;2023-02-11T01:15:20;54.33;;;26.93;;
10399;SDS011;10031;51.180;17.168;2023-02-11T01:17:46;52.30;;;26.33;;
10399;SDS011;10031;51.180;17.168;2023-02-11T01:20:16;50.17;;;24.80;;
10399;SDS011;10031;51.180;17.168;2023-02-11T01:22:44;53.83;;;26.00;;
10399;SDS011;10031;51.180;17.168;2023-02-11T01:25:10;56.93;;;25.93;;
10399;SDS011;10031;51.180;17.168;2023-02-11T01:27:36;53.37;;;26.80;;
10399;SDS011;10031;51.180;17.168;2023-02-11T01:30:03;50.67;;;25.60;;
10399;SDS011;10031;51.180;17.168;2023-02-11T01:32:30;51.77;;;25.33;;
10399;SDS011;10031;51.180;17.168;2023-02-11T01:34:56;56.77;;;26.87;;
10399;SDS011;10031;51.180;17.168;2023-02-11T01:37:22;52.47;;;26.33;;
10399;SDS011;10031;51.180;17.168;2023-02-11T01:39:48;53.53;;;26.37;;
10399;SDS011;10031;51.180;17.168;2023-02-11T01:42:15;52.80;;;26.60;;
10399;SDS011;10031;51.180;17.168;2023-02-11T01:44:41;66.77;;;27.97;;
10399;SDS011;10031;51.180;17.168;2023-02-11T01:47:07;57.83;;;26.77;;
10399;SDS011;10031;51.180;17.168;2023-02-11T01:49:41;58.20;;;26.77;;
10399;SDS011;10031;51.180;17.168;2023-02-11T01:54:43;49.37;;;24.10;;
10399;SDS011;10031;51.180;17.168;2023-02-11T01:57:33;60.93;;;27.97;;
10399;SDS011;10031;51.180;17.168;2023-02-11T02:02:32;50.50;;;26.10;;
10399;SDS011;10031;51.180;17.168;2023-02-11T02:05:16;51.53;;;26.00;;
10399;SDS011;10031;51.180;17.168;2023-02-11T02:08:08;54.17;;;26.70;;
10399;SDS011;10031;51.180;17.168;2023-02-11T02:10:49;57.83;;;27.57;;
10399;SDS011;10031;51.180;17.168;2023-02-11T02:13:20;57.30;;;26.83;;
10399;SDS011;10031;51.180;17.168;2023-02-11T02:15:51;60.50;;;28.03;;
10399;SDS011;10031;51.180;17.168;2023-02-11T02:24:36;60.40;;;28.43;;
10399;SDS011;10031;51.180;17.168;2023-02-11T02:27:09;58.87;;;28.63;;
10399;SDS011;10031;51.180;17.168;2023-02-11T02:40:35;55.17;;;26.90;;
10399;SDS011;10031;51.180;17.168;2023-02-11T02:43:24;61.77;;;29.13;;
10399;SDS011;10031;51.180;17.168;2023-02-11T02:45:50;62.03;;;29.23;;
10399;SDS011;10031;51.180;17.168;2023-02-11T02:48:32;58.10;;;28.70;;
10399;SDS011;10031;51.180;17.168;2023-02-11T02:56:54;57.33;;;27.70;;
10399;SDS011;10031;51.180;17.168;2023-02-11T03:10:42;49.10;;;25.47;;
10399;SDS011;10031;51.180;17.168;2023-02-11T03:13:11;50.67;;;24.03;;
10399;SDS011;10031;51.180;17.168;2023-02-11T03:15:42;47.13;;;24.77;;
10399;SDS011;10031;51.180;17.168;2023-02-11T03:18:11;50.37;;;25.20;;
10399;SDS011;10031;51.180;17.168;2023-02-11T03:20:40;49.80;;;24.77;;
10399;SDS011;10031;51.180;17.168;2023-02-11T03:23:13;45.30;;;24.50;;
10399;SDS011;10031;51.180;17.168;2023-02-11T03:25:47;49.63;;;25.20;;
10399;SDS011;10031;51.180;17.168;2023-02-11T03:28:22;48.90;;;25.00;;
10399;SDS011;10031;51.180;17.168;2023-02-11T03:30:57;48.03;;;23.77;;
10399;SDS011;10031;51.180;17.168;2023-02-11T03:39:15;40.73;;;21.97;;
10399;SDS011;10031;51.180;17.168;2023-02-11T03:41:49;55.57;;;25.43;;
10399;SDS011;10031;51.180;17.168;2023-02-11T03:44:19;42.40;;;22.97;;
10399;SDS011;10031;51.180;17.168;2023-02-11T03:46:49;46.57;;;23.10;;
10399;SDS011;10031;51.180;17.168;2023-02-11T03:49:17;44.40;;;22.73;;
10399;SDS011;10031;51.180;17.168;2023-02-11T03:51:46;43.30;;;23.03;;
10399;SDS011;10031;51.180;17.168;2023-02-11T03:54:15;46.33;;;23.13;;
10399;SDS011;10031;51.180;17.168;2023-02-11T03:56:50;44.30;;;22.97;;
10399;SDS011;10031;51.180;17.168;2023-02-11T03:59:18;44.37;;;22.53;;
10399;SDS011;10031;51.180;17.168;2023-02-11T04:01:44;42.43;;;22.37;;
10399;SDS011;10031;51.180;17.168;2023-02-11T04:04:10;43.07;;;23.20;;
10399;SDS011;10031;51.180;17.168;2023-02-11T04:06:36;41.90;;;22.40;;
10399;SDS011;10031;51.180;17.168;2023-02-11T04:09:02;46.37;;;24.17;;
10399;SDS011;10031;51.180;17.168;2023-02-11T04:11:28;42.30;;;22.33;;
10399;SDS011;10031;51.180;17.168;2023-02-11T04:13:54;43.93;;;22.80;;
10399;SDS011;10031;51.180;17.168;2023-02-11T04:16:20;42.67;;;22.33;;
10399;SDS011;10031;51.180;17.168;2023-02-11T04:18:47;43.47;;;24.53;;
10399;SDS011;10031;51.180;17.168;2023-02-11T04:21:13;49.57;;;22.90;;
10399;SDS011;10031;51.180;17.168;2023-02-11T04:23:39;37.37;;;22.00;;
10399;SDS011;10031;51.180;17.168;2023-02-11T04:26:05;44.53;;;22.43;;
10399;SDS011;10031;51.180;17.168;2023-02-11T04:28:31;44.13;;;22.57;;
10399;SDS011;10031;51.180;17.168;2023-02-11T04:30:57;41.77;;;21.80;;
10399;SDS011;10031;51.180;17.168;2023-02-11T04:33:23;43.77;;;23.10;;
10399;SDS011;10031;51.180;17.168;2023-02-11T04:35:49;45.50;;;23.57;;
10399;SDS011;10031;51.180;17.168;2023-02-11T04:38:16;45.47;;;22.50;;
10399;SDS011;10031;51.180;17.168;2023-02-11T04:40:42;41.37;;;22.87;;
10399;SDS011;10031;51.180;17.168;2023-02-11T04:43:08;45.00;;;22.10;;
10399;SDS011;10031;51.180;17.168;2023-02-11T04:45:37;39.57;;;22.47;;
10399;SDS011;10031;51.180;17.168;2023-02-11T04:48:02;43.83;;;23.10;;
10399;SDS011;10031;51.180;17.168;2023-02-11T04:50:28;41.80;;;22.73;;
10399;SDS011;10031;51.180;17.168;2023-02-11T04:52:54;40.27;;;22.63;;
10399;SDS011;10031;51.180;17.168;2023-02-11T04:55:20;38.83;;;22.30;;
10399;SDS011;10031;51.180;17.168;2023-02-11T04:57:46;40.37;;;22.43;;
10399;SDS011;10031;51.180;17.168;2023-02-11T05:00:13;45.07;;;23.67;;
10399;SDS011;10031;51.180;17.168;2023-02-11T05:02:39;43.23;;;22.60;;
10399;SDS011;10031;51.180;17.168;2023-02-11T05:05:05;41.00;;;21.83;;
10399;SDS011;10031;51.180;17.168;2023-02-11T05:07:31;42.00;;;20.43;;
10399;SDS011;10031;51.180;17.168;2023-02-11T05:09:57;37.23;;;21.57;;
10399;SDS011;10031;51.180;17.168;2023-02-11T05:12:23;44.20;;;22.47;;
10399;SDS011;10031;51.180;17.168;2023-02-11T05:14:49;39.77;;;21.50;;
10399;SDS011;10031;51.180;17.168;2023-02-11T05:17:15;42.53;;;22.13;;
10399;SDS011;10031;51.180;17.168;2023-02-11T05:19:41;38.60;;;21.27;;
10399;SDS011;10031;51.180;17.168;2023-02-11T05:22:07;39.63;;;21.83;;
10399;SDS011;10031;51.180;17.168;2023-02-11T05:24:33;43.50;;;21.53;;
10399;SDS011;10031;51.180;17.168;2023-02-11T05:27:00;38.67;;;21.17;;
10399;SDS011;10031;51.180;17.168;2023-02-11T05:29:26;37.37;;;20.53;;
10399;SDS011;10031;51.180;17.168;2023-02-11T05:31:52;40.20;;;20.63;;
10399;SDS011;10031;51.180;17.168;2023-02-11T05:34:18;39.33;;;21.97;;
10399;SDS011;10031;51.180;17.168;2023-02-11T05:36:44;38.17;;;20.10;;
10399;SDS011;10031;51.180;17.168;2023-02-11T05:39:10;38.63;;;21.13;;
10399;SDS011;10031;51.180;17.168;2023-02-11T05:41:36;43.83;;;22.17;;
10399;SDS011;10031;51.180;17.168;2023-02-11T05:44:02;43.80;;;22.20;;
10399;SDS011;10031;51.180;17.168;2023-02-11T05:46:28;39.20;;;21.07;;
10399;SDS011;10031;51.180;17.168;2023-02-11T05:48:54;42.27;;;20.87;;
10399;SDS011;10031;51.180;17.168;2023-02-11T05:51:21;41.37;;;21.63;;
10399;SDS011;10031;51.180;17.168;2023-02-11T05:53:47;39.20;;;21.33;;
10399;SDS011;10031;51.180;17.168;2023-02-11T05:56:13;44.33;;;21.83;;
10399;SDS011;10031;51.180;17.168;2023-02-11T05:58:39;40.90;;;22.03;;
10399;SDS011;10031;51.180;17.168;2023-02-11T06:01:05;41.47;;;21.43;;
10399;SDS011;10031;51.180;17.168;2023-02-11T06:03:31;41.07;;;22.20;;
10399;SDS011;10031;51.180;17.168;2023-02-11T06:05:57;42.93;;;21.73;;
10399;SDS011;10031;51.180;17.168;2023-02-11T06:08:23;45.73;;;21.53;;
10399;SDS011;10031;51.180;17.168;2023-02-11T06:10:49;44.73;;;22.90;;
10399;SDS011;10031;51.180;17.168;2023-02-11T06:13:15;44.20;;;23.03;;
10399;SDS011;10031;51.180;17.168;2023-02-11T06:15:42;39.33;;;21.43;;
10399;SDS011;10031;51.180;17.168;2023-02-11T06:18:08;42.80;;;22.53;;
10399;SDS011;10031;51.180;17.168;2023-02-11T06:20:34;41.57;;;22.90;;
10399;SDS011;10031;51.180;17.168;2023-02-11T06:23:01;39.97;;;20.93;;
10399;SDS011;10031;51.180;17.168;2023-02-11T06:25:27;40.30;;;21.40;;
10399;SDS011;10031;51.180;17.168;2023-02-11T06:27:53;38.10;;;20.70;;
10399;SDS011;10031;51.180;17.168;2023-02-11T06:30:19;38.83;;;20.93;;
10399;SDS011;10031;51.180;17.168;2023-02-11T06:32:45;38.47;;;20.63;;
10399;SDS011;10031;51.180;17.168;2023-02-11T06:35:12;44.10;;;22.50;;
10399;SDS011;10031;51.180;17.168;2023-02-11T06:37:39;41.67;;;21.23;;
10399;SDS011;10031;51.180;17.168;2023-02-11T06:40:05;43.13;;;21.67;;
10399;SDS011;10031;51.180;17.168;2023-02-11T06:42:31;44.07;;;22.40;;
10399;SDS011;10031;51.180;17.168;2023-02-11T06:44:58;39.57;;;22.10;;
10399;SDS011;10031;51.180;17.168;2023-02-11T06:47:24;42.57;;;23.00;;
10399;SDS011;10031;51.180;17.168;2023-02-11T06:49:50;43.00;;;22.17;;
10399;SDS011;10031;51.180;17.168;2023-02-11T06:52:16;41.20;;;23.23;;
10399;SDS011;10031;51.180;17.168;2023-02-11T06:54:55;43.97;;;23.43;;
10399;SDS011;10031;51.180;17.168;2023-02-11T06:57:21;44.77;;;24.03;;
10399;SDS011;10031;51.180;17.168;2023-02-11T06:59:51;49.50;;;25.83;;
10399;SDS011;10031;51.180;17.168;2023-02-11T07:02:17;46.33;;;25.17;;
10399;SDS011;10031;51.180;17.168;2023-02-11T07:04:43;48.40;;;24.30;;
10399;SDS011;10031;51.180;17.168;2023-02-11T07:07:09;46.53;;;23.73;;
10399;SDS011;10031;51.180;17.168;2023-02-11T07:09:35;50.70;;;25.90;;
10399;SDS011;10031;51.180;17.168;2023-02-11T07:12:01;46.77;;;23.60;;
10399;SDS011;10031;51.180;17.168;2023-02-11T07:14:27;44.20;;;23.47;;
10399;SDS011;10031;51.180;17.168;2023-02-11T07:16:53;39.93;;;22.90;;
10399;SDS011;10031;51.180;17.168;2023-02-11T07:19:19;41.57;;;22.93;;
10399;SDS011;10031;51.180;17.168;2023-02-11T07:21:48;46.17;;;23.10;;
10399;SDS011;10031;51.180;17.168;2023-02-11T07:24:27;39.37;;;22.27;;
10399;SDS011;10031;51.180;17.168;2023-02-11T07:26:53;46.57;;;23.33;;
10399;SDS011;10031;51.180;17.168;2023-02-11T07:29:22;43.83;;;23.77;;
10399;SDS011;10031;51.180;17.168;2023-02-11T07:31:50;44.03;;;22.70;;
10399;SDS011;10031;51.180;17.168;2023-02-11T07:34:20;41.77;;;23.40;;
10399;SDS011;10031;51.180;17.168;2023-02-11T07:36:46;39.73;;;22.47;;
10399;SDS011;10031;51.180;17.168;2023-02-11T07:39:13;44.60;;;22.90;;
10399;SDS011;10031;51.180;17.168;2023-02-11T07:41:39;43.00;;;22.73;;
10399;SDS011;10031;51.180;17.168;2023-02-11T07:44:05;41.90;;;23.20;;
10399;SDS011;10031;51.180;17.168;2023-02-11T07:46:35;43.00;;;22.07;;
10399;SDS011;10031;51.180;17.168;2023-02-11T07:49:01;41.37;;;23.00;;
10399;SDS011;10031;51.180;17.168;2023-02-11T07:51:27;38.70;;;22.93;;
10399;SDS011;10031;51.180;17.168;2023-02-11T07:53:55;38.77;;;22.23;;
10399;SDS011;10031;51.180;17.168;2023-02-11T07:56:22;37.57;;;21.93;;
10399;SDS011;10031;51.180;17.168;2023-02-11T07:58:49;43.57;;;22.27;;
10399;SDS011;10031;51.180;17.168;2023-02-11T08:01:16;42.00;;;21.70;;
10399;SDS011;10031;51.180;17.168;2023-02-11T08:03:46;40.07;;;23.07;;
10399;SDS011;10031;51.180;17.168;2023-02-11T08:06:15;39.13;;;21.67;;
10399;SDS011;10031;51.180;17.168;2023-02-11T08:08:45;35.23;;;20.47;;
10399;SDS011;10031;51.180;17.168;2023-02-11T08:11:21;46.37;;;22.57;;
10399;SDS011;10031;51.180;17.168;2023-02-11T08:13:49;41.07;;;22.33;;
10399;SDS011;10031;51.180;17.168;2023-02-11T08:16:28;39.33;;;21.67;;
10399;SDS011;10031;51.180;17.168;2023-02-11T08:18:56;36.67;;;21.07;;
10399;SDS011;10031;51.180;17.168;2023-02-11T08:21:24;39.97;;;22.10;;
10399;SDS011;10031;51.180;17.168;2023-02-11T08:23:51;38.90;;;21.70;;
10399;SDS011;10031;51.180;17.168;2023-02-11T08:26:20;40.33;;;21.17;;
10399;SDS011;10031;51.180;17.168;2023-02-11T08:28:48;39.33;;;21.27;;
10399;SDS011;10031;51.180;17.168;2023-02-11T08:31:28;32.97;;;17.07;;
10399;SDS011;10031;51.180;17.168;2023-02-11T08:33:57;41.33;;;20.43;;
10399;SDS011;10031;51.180;17.168;2023-02-11T08:36:24;38.30;;;21.27;;
10399;SDS011;10031;51.180;17.168;2023-02-11T08:38:57;32.90;;;17.50;;
10399;SDS011;10031;51.180;17.168;2023-02-11T08:41:23;34.43;;;17.23;;
10399;SDS011;10031;51.180;17.168;2023-02-11T08:43:49;30.23;;;16.10;;
10399;SDS011;10031;51.180;17.168;2023-02-11T08:46:16;35.47;;;16.77;;
10399;SDS011;10031;51.180;17.168;2023-02-11T08:48:46;40.83;;;18.83;;
10399;SDS011;10031;51.180;17.168;2023-02-11T08:51:16;42.40;;;21.37;;
10399;SDS011;10031;51.180;17.168;2023-02-11T08:53:53;39.67;;;21.13;;
10399;SDS011;10031;51.180;17.168;2023-02-11T08:56:19;45.10;;;21.23;;
10399;SDS011;10031;51.180;17.168;2023-02-11T08:58:47;44.63;;;22.90;;
10399;SDS011;10031;51.180;17.168;2023-02-11T09:01:21;39.07;;;21.87;;
10399;SDS011;10031;51.180;17.168;2023-02-11T09:03:49;35.30;;;20.03;;
10399;SDS011;10031;51.180;17.168;2023-02-11T09:06:16;41.50;;;19.73;;
10399;SDS011;10031;51.180;17.168;2023-02-11T09:08:43;36.67;;;18.83;;
10399;SDS011;10031;51.180;17.168;2023-02-11T09:11:13;38.13;;;18.97;;
10399;SDS011;10031;51.180;17.168;2023-02-11T09:13:40;42.37;;;22.53;;
10399;SDS011;10031;51.180;17.168;2023-02-11T09:16:07;27.40;;;13.13;;
10399;SDS011;10031;51.180;17.168;2023-02-11T09:18:33;42.30;;;23.60;;
10399;SDS011;10031;51.180;17.168;2023-02-11T09:21:06;40.10;;;21.93;;
10399;SDS011;10031;51.180;17.168;2023-02-11T09:23:33;43.67;;;23.03;;
10399;SDS011;10031;51.180;17.168;2023-02-11T09:26:04;41.20;;;21.20;;
10399;SDS011;10031;51.180;17.168;2023-02-11T09:28:31;51.70;;;24.67;;
10399;SDS011;10031;51.180;17.168;2023-02-11T09:30:57;43.13;;;22.57;;
10399;SDS011;10031;51.180;17.168;2023-02-11T09:33:23;39.67;;;20.67;;
10399;SDS011;10031;51.180;17.168;2023-02-11T09:35:49;41.30;;;21.80;;
10399;SDS011;10031;51.180;17.168;2023-02-11T09:38:15;43.33;;;24.30;;
10399;SDS011;10031;51.180;17.168;2023-02-11T09:40:42;45.23;;;23.77;;
10399;SDS011;10031;51.180;17.168;2023-02-11T09:46:03;35.63;;;21.03;;
10399;SDS011;10031;51.180;17.168;2023-02-11T09:48:30;41.47;;;22.53;;
10399;SDS011;10031;51.180;17.168;2023-02-11T09:51:03;39.30;;;21.20;;
10399;SDS011;10031;51.180;17.168;2023-02-11T09:53:30;39.90;;;22.50;;
10399;SDS011;10031;51.180;17.168;2023-02-11T09:56:09;29.33;;;13.53;;
10399;SDS011;10031;51.180;17.168;2023-02-11T09:58:40;34.43;;;16.23;;
10399;SDS011;10031;51.180;17.168;2023-02-11T10:06:53;37.50;;;18.07;;
10399;SDS011;10031;51.180;17.168;2023-02-11T10:14:41;33.90;;;19.40;;
10399;SDS011;10031;51.180;17.168;2023-02-11T10:20:14;29.97;;;16.90;;
10399;SDS011;10031;51.180;17.168;2023-02-11T10:22:47;24.43;;;13.77;;
10399;SDS011;10031;51.180;17.168;2023-02-11T10:27:42;32.20;;;20.10;;
10399;SDS011;10031;51.180;17.168;2023-02-11T10:30:17;30.47;;;18.57;;
10399;SDS011;10031;51.180;17.168;2023-02-11T10:33:02;29.00;;;15.97;;
10399;SDS011;10031;51.180;17.168;2023-02-11T10:35:34;21.27;;;12.00;;
10399;SDS011;10031;51.180;17.168;2023-02-11T10:38:02;27.23;;;15.80;;
10399;SDS011;10031;51.180;17.168;2023-02-11T10:40:29;33.37;;;17.43;;
10399;SDS011;10031;51.180;17.168;2023-02-11T10:42:59;34.50;;;19.83;;
10399;SDS011;10031;51.180;17.168;2023-02-11T10:45:32;22.97;;;11.83;;
10399;SDS011;10031;51.180;17.168;2023-02-11T10:51:07;27.33;;;14.43;;
10399;SDS011;10031;51.180;17.168;2023-02-11T10:53:44;33.80;;;19.83;;
10399;SDS011;10031;51.180;17.168;2023-02-11T10:56:12;21.63;;;11.80;;
10399;SDS011;10031;51.180;17.168;2023-02-11T10:58:46;20.30;;;10.80;;
10399;SDS011;10031;51.180;17.168;2023-02-11T11:01:19;30.83;;;17.90;;
10399;SDS011;10031;51.180;17.168;2023-02-11T11:03:46;26.47;;;14.93;;
10399;SDS011;10031;51.180;17.168;2023-02-11T11:06:14;36.00;;;19.57;;
10399;SDS011;10031;51.180;17.168;2023-02-11T11:08:41;33.93;;;19.77;;
10399;SDS011;10031;51.180;17.168;2023-02-11T11:11:12;34.30;;;17.77;;
10399;SDS011;10031;51.180;17.168;2023-02-11T11:13:40;29.03;;;13.20;;
10399;SDS011;10031;51.180;17.168;2023-02-11T11:18:41;37.77;;;20.53;;
10399;SDS011;10031;51.180;17.168;2023-02-11T11:23:47;32.80;;;17.10;;
10399;SDS011;10031;51.180;17.168;2023-02-11T11:26:19;33.40;;;14.00;;
10399;SDS011;10031;51.180;17.168;2023-02-11T11:31:13;35.03;;;19.03;;
10399;SDS011;10031;51.180;17.168;2023-02-11T11:33:43;38.90;;;19.53;;
10399;SDS011;10031;51.180;17.168;2023-02-11T11:36:12;35.80;;;19.53;;
10399;SDS011;10031;51.180;17.168;2023-02-11T11:38:46;27.13;;;14.77;;
10399;SDS011;10031;51.180;17.168;2023-02-11T11:43:58;39.77;;;21.50;;
10399;SDS011;10031;51.180;17.168;2023-02-11T11:46:40;28.80;;;14.23;;
10399;SDS011;10031;51.180;17.168;2023-02-11T11:51:34;38.73;;;18.77;;
10399;SDS011;10031;51.180;17.168;2023-02-11T11:54:03;21.57;;;11.63;;
10399;SDS011;10031;51.180;17.168;2023-02-11T11:56:32;34.67;;;17.77;;
10399;SDS011;10031;51.180;17.168;2023-02-11T11:59:10;31.53;;;15.27;;
10399;SDS011;10031;51.180;17.168;2023-02-11T12:28:10;22.90;;;12.63;;
10399;SDS011;10031;51.180;17.168;2023-02-11T12:30:48;35.90;;;19.33;;
10399;SDS011;10031;51.180;17.168;2023-02-11T12:36:01;32.70;;;15.67;;
10399;SDS011;10031;51.180;17.168;2023-02-11T12:47:21;33.67;;;18.73;;
10399;SDS011;10031;51.180;17.168;2023-02-11T12:57:52;35.83;;;20.80;;
10399;SDS011;10031;51.180;17.168;2023-02-11T13:00:22;29.57;;;16.17;;
10399;SDS011;10031;51.180;17.168;2023-02-11T13:08:10;39.67;;;21.43;;
10399;SDS011;10031;51.180;17.168;2023-02-11T13:10:48;36.03;;;17.73;;
10399;SDS011;10031;51.180;17.168;2023-02-11T13:15:54;31.67;;;16.47;;
10399;SDS011;10031;51.180;17.168;2023-02-11T13:18:51;30.70;;;17.33;;
10399;SDS011;10031;51.180;17.168;2023-02-11T13:21:35;25.80;;;15.60;;
10399;SDS011;10031;51.180;17.168;2023-02-11T13:26:41;33.17;;;19.73;;
10399;SDS011;10031;51.180;17.168;2023-02-11T13:32:23;34.03;;;19.07;;
10399;SDS011;10031;51.180;17.168;2023-02-11T13:34:53;32.00;;;16.30;;
10399;SDS011;10031;51.180;17.168;2023-02-11T13:37:24;32.40;;;18.47;;
10399;SDS011;10031;51.180;17.168;2023-02-11T13:42:49;29.50;;;14.27;;
10399;SDS011;10031;51.180;17.168;2023-02-11T13:45:20;33.03;;;19.00;;
10399;SDS011;10031;51.180;17.168;2023-02-11T13:47:59;21.00;;;11.63;;
10399;SDS011;10031;51.180;17.168;2023-02-11T13:50:28;30.33;;;15.97;;
10399;SDS011;10031;51.180;17.168;2023-02-11T13:52:59;32.93;;;16.40;;
10399;SDS011;10031;51.180;17.168;2023-02-11T13:55:26;34.83;;;18.20;;
10399;SDS011;10031;51.180;17.168;2023-02-11T14:11:43;29.00;;;16.17;;
10399;SDS011;10031;51.180;17.168;2023-02-11T14:22:02;37.77;;;20.17;;
10399;SDS011;10031;51.180;17.168;2023-02-11T14:27:19;41.03;;;20.43;;
10399;SDS011;10031;51.180;17.168;2023-02-11T14:40:55;35.27;;;16.57;;
10399;SDS011;10031;51.180;17.168;2023-02-11T14:43:33;44.17;;;22.30;;
10399;SDS011;10031;51.180;17.168;2023-02-11T14:46:03;28.17;;;16.27;;
10399;SDS011;10031;51.180;17.168;2023-02-11T14:48:30;36.70;;;19.33;;
10399;SDS011;10031;51.180;17.168;2023-02-11T14:53:43;37.43;;;20.50;;
10399;SDS011;10031;51.180;17.168;2023-02-11T14:56:16;39.57;;;21.53;;
10399;SDS011;10031;51.180;17.168;2023-02-11T14:58:49;28.40;;;15.40;;
10399;SDS011;10031;51.180;17.168;2023-02-11T15:03:48;33.00;;;15.10;;
10399;SDS011;10031;51.180;17.168;2023-02-11T15:06:24;38.33;;;22.33;;
10399;SDS011;10031;51.180;17.168;2023-02-11T15:08:52;36.47;;;19.97;;
10399;SDS011;10031;51.180;17.168;2023-02-11T15:11:25;42.53;;;23.33;;
10399;SDS011;10031;51.180;17.168;2023-02-11T15:13:51;37.20;;;19.47;;
10399;SDS011;10031;51.180;17.168;2023-02-11T15:16:22;36.77;;;19.07;;
10399;SDS011;10031;51.180;17.168;2023-02-11T15:18:51;34.37;;;18.40;;
10399;SDS011;10031;51.180;17.168;2023-02-11T15:21:22;34.23;;;19.60;;
10399;SDS011;10031;51.180;17.168;2023-02-11T15:26:54;33.00;;;18.27;;
10399;SDS011;10031;51.180;17.168;2023-02-11T15:29:33;36.60;;;19.23;;
10399;SDS011;10031;51.180;17.168;2023-02-11T15:32:02;29.97;;;13.97;;
10399;SDS011;10031;51.180;17.168;2023-02-11T15:34:32;31.93;;;18.90;;
10399;SDS011;10031;51.180;17.168;2023-02-11T15:36:59;42.03;;;20.97;;
10399;SDS011;10031;51.180;17.168;2023-02-11T15:39:39;40.80;;;22.87;;
10399;SDS011;10031;51.180;17.168;2023-02-11T15:42:22;39.07;;;22.10;;
10399;SDS011;10031;51.180;17.168;2023-02-11T15:47:33;32.73;;;17.93;;
10399;SDS011;10031;51.180;17.168;2023-02-11T15:50:00;43.40;;;24.60;;
10399;SDS011;10031;51.180;17.168;2023-02-11T15:52:26;45.30;;;22.73;;
10399;SDS011;10031;51.180;17.168;2023-02-11T15:54:53;42.77;;;22.57;;
10399;SDS011;10031;51.180;17.168;2023-02-11T15:57:23;44.23;;;23.07;;
10399;SDS011;10031;51.180;17.168;2023-02-11T15:59:50;32.33;;;18.10;;
10399;SDS011;10031;51.180;17.168;2023-02-11T16:02:29;39.13;;;21.47;;
10399;SDS011;10031;51.180;17.168;2023-02-11T16:04:57;45.40;;;24.13;;
10399;SDS011;10031;51.180;17.168;2023-02-11T16:10:27;45.67;;;24.10;;
10399;SDS011;10031;51.180;17.168;2023-02-11T16:18:03;38.50;;;21.27;;
10399;SDS011;10031;51.180;17.168;2023-02-11T16:20:31;45.77;;;22.03;;
10399;SDS011;10031;51.180;17.168;2023-02-11T16:23:05;40.13;;;21.70;;
10399;SDS011;10031;51.180;17.168;2023-02-11T16:25:33;41.17;;;22.77;;
10399;SDS011;10031;51.180;17.168;2023-02-11T16:28:00;40.10;;;21.73;;
10399;SDS011;10031;51.180;17.168;2023-02-11T16:30:27;41.47;;;21.93;;
10399;SDS011;10031;51.180;17.168;2023-02-11T16:32:56;33.30;;;17.80;;
10399;SDS011;10031;51.180;17.168;2023-02-11T16:35:22;48.13;;;26.30;;
10399;SDS011;10031;51.180;17.168;2023-02-11T16:37:48;40.27;;;21.43;;
10399;SDS011;10031;51.180;17.168;2023-02-11T16:40:15;26.53;;;12.87;;
10399;SDS011;10031;51.180;17.168;2023-02-11T16:42:41;38.53;;;19.23;;
10399;SDS011;10031;51.180;17.168;2023-02-11T16:45:07;40.67;;;23.40;;
10399;SDS011;10031;51.180;17.168;2023-02-11T16:47:34;40.37;;;21.87;;
10399;SDS011;10031;51.180;17.168;2023-02-11T16:50:05;36.67;;;21.23;;
10399;SDS011;10031;51.180;17.168;2023-02-11T16:52:33;35.17;;;20.73;;
10399;SDS011;10031;51.180;17.168;2023-02-11T16:55:03;42.00;;;22.60;;
10399;SDS011;10031;51.180;17.168;2023-02-11T16:57:30;36.47;;;19.73;;
10399;SDS011;10031;51.180;17.168;2023-02-11T16:59:56;34.53;;;19.87;;
10399;SDS011;10031;51.180;17.168;2023-02-11T17:04:52;35.77;;;21.97;;
10399;SDS011;10031;51.180;17.168;2023-02-11T17:07:18;37.17;;;20.53;;
10399;SDS011;10031;51.180;17.168;2023-02-11T17:09:44;37.77;;;20.60;;
10399;SDS011;10031;51.180;17.168;2023-02-11T17:12:10;31.43;;;17.43;;
10399;SDS011;10031;51.180;17.168;2023-02-11T17:14:36;32.87;;;19.73;;
10399;SDS011;10031;51.180;17.168;2023-02-11T17:17:03;21.90;;;12.17;;
10399;SDS011;10031;51.180;17.168;2023-02-11T17:19:29;40.37;;;22.53;;
10399;SDS011;10031;51.180;17.168;2023-02-11T17:21:55;35.83;;;21.03;;
10399;SDS011;10031;51.180;17.168;2023-02-11T17:24:21;36.03;;;21.20;;
10399;SDS011;10031;51.180;17.168;2023-02-11T17:26:48;38.73;;;21.43;;
10399;SDS011;10031;51.180;17.168;2023-02-11T17:29:15;41.77;;;21.90;;
10399;SDS011;10031;51.180;17.168;2023-02-11T17:31:45;42.13;;;22.13;;
10399;SDS011;10031;51.180;17.168;2023-02-11T17:34:11;35.17;;;21.40;;
10399;SDS011;10031;51.180;17.168;2023-02-11T17:36:37;37.50;;;19.80;;
10399;SDS011;10031;51.180;17.168;2023-02-11T17:39:05;34.33;;;19.17;;